sensor_id;sensor_type;location;lat;lon;timestamp;P1;durP1;ratioP1;P2;durP2;ratioP2
23252;SDS011;11795;47.054;15.408;2023-05-10T00:00:00;5.4;;;4.6;;
23252;SDS011;11795;47.054;15.408;2023-05-10T00:02:00;5.4;;;4.6;;
23252;SDS011;11795;47.054;15.408;2023-05-10T00:04:00;6.7;;;5.5;;
23252;SDS011;11795;47.054;15.408;2023-05-10T00:06:00;6.7;;;5.5;;
23252;SDS011;11795;47.054;15.408;2023-05-10T00:08:00;5.6;;;4.9;;
23252;SDS011;11795;47.054;15.408;2023-05-10T00:10:00;5.6;;;4.9;;
23252;SDS011;11795;47.054;15.408;2023-05-10T00:12:00;5.6;;;4.9;;
23252;SDS011;11795;47.054;15.408;2023-05-10T00:14:00;4.8;;;4.3;;
23252;SDS011;11795;47.054;15.408;2023-05-10T00:16:00;4.8;;;4.3;;
23252;SDS011;11795;47.054;15.408;2023-05-10T00:18:00;5.1;;;4.4;;
23252;SDS011;11795;47.054;15.408;2023-05-10T00:20:00;5.1;;;4.4;;
23252;SDS011;11795;47.054;15.408;2023-05-10T00:22:00;5.1;;;4.4;;
23252;SDS011;11795;47.054;15.408;2023-05-10T00:24:00;5.2;;;4.7;;
23252;SDS011;11795;47.054;15.408;2023-05-10T00:26:00;5.2;;;4.7;;
23252;SDS011;11795;47.054;15.408;2023-05-10T00:28:01;5.0;;;4.5;;
23252;SDS011;11795;47.054;15.408;2023-05-10T00:30:00;5.0;;;4.5;;
23252;SDS011;11795;47.054;15.408;2023-05-10T00:32:00;5.0;;;4.5;;
23252;SDS011;11795;47.054;15.408;2023-05-10T00:34:00;5.1;;;4.0;;
23252;SDS011;11795;47.054;15.408;2023-05-10T00:36:00;5.1;;;4.0;;
23252;SDS011;11795;47.054;15.408;2023-05-10T00:38:00;4.4;;;3.9;;
23252;SDS011;11795;47.054;15.408;2023-05-10T00:40:00;4.4;;;3.9;;
23252;SDS011;11795;47.054;15.408;2023-05-10T00:42:00;4.4;;;3.9;;
23252;SDS011;11795;47.054;15.408;2023-05-10T00:44:02;6.1;;;3.9;;
23252;SDS011;11795;47.054;15.408;2023-05-10T00:46:00;6.1;;;3.9;;
23252;SDS011;11795;47.054;15.408;2023-05-10T00:48:00;4.8;;;4.0;;
23252;SDS011;11795;47.054;15.408;2023-05-10T00:50:00;4.8;;;4.0;;
23252;SDS011;11795;47.054;15.408;2023-05-10T00:52:02;4.8;;;4.0;;
23252;SDS011;11795;47.054;15.408;2023-05-10T00:54:00;4.6;;;4.1;;
23252;SDS011;11795;47.054;15.408;2023-05-10T00:56:01;4.6;;;4.1;;
23252;SDS011;11795;47.054;15.408;2023-05-10T00:58:01;5.2;;;4.6;;
23252;SDS011;11795;47.054;15.408;2023-05-10T01:00:00;5.2;;;4.6;;
23252;SDS011;11795;47.054;15.408;2023-05-10T01:02:00;5.2;;;4.6;;
23252;SDS011;11795;47.054;15.408;2023-05-10T01:04:00;5.2;;;4.7;;
23252;SDS011;11795;47.054;15.408;2023-05-10T01:06:00;5.2;;;4.7;;
23252;SDS011;11795;47.054;15.408;2023-05-10T01:08:00;5.0;;;4.5;;
23252;SDS011;11795;47.054;15.408;2023-05-10T01:10:00;5.0;;;4.5;;
23252;SDS011;11795;47.054;15.408;2023-05-10T01:12:01;5.0;;;4.5;;
23252;SDS011;11795;47.054;15.408;2023-05-10T01:14:00;5.3;;;4.8;;
23252;SDS011;11795;47.054;15.408;2023-05-10T01:16:02;5.3;;;4.8;;
23252;SDS011;11795;47.054;15.408;2023-05-10T01:18:00;5.7;;;5.2;;
23252;SDS011;11795;47.054;15.408;2023-05-10T01:20:00;5.7;;;5.2;;
23252;SDS011;11795;47.054;15.408;2023-05-10T01:22:03;5.7;;;5.2;;
23252;SDS011;11795;47.054;15.408;2023-05-10T01:24:09;5.1;;;4.6;;
23252;SDS011;11795;47.054;15.408;2023-05-10T01:26:07;5.1;;;4.6;;
23252;SDS011;11795;47.054;15.408;2023-05-10T01:28:06;5.1;;;4.6;;
23252;SDS011;11795;47.054;15.408;2023-05-10T01:30:02;5.1;;;4.6;;
23252;SDS011;11795;47.054;15.408;2023-05-10T01:34:01;5.9;;;5.3;;
23252;SDS011;11795;47.054;15.408;2023-05-10T01:36:01;5.9;;;5.3;;
23252;SDS011;11795;47.054;15.408;2023-05-10T01:38:03;5.7;;;4.6;;
23252;SDS011;11795;47.054;15.408;2023-05-10T01:40:03;5.7;;;4.6;;
23252;SDS011;11795;47.054;15.408;2023-05-10T01:42:03;5.7;;;4.6;;
23252;SDS011;11795;47.054;15.408;2023-05-10T01:44:02;6.0;;;4.8;;
23252;SDS011;11795;47.054;15.408;2023-05-10T01:46:01;6.0;;;4.8;;
23252;SDS011;11795;47.054;15.408;2023-05-10T01:48:04;4.7;;;4.3;;
23252;SDS011;11795;47.054;15.408;2023-05-10T01:50:01;4.7;;;4.3;;
23252;SDS011;11795;47.054;15.408;2023-05-10T01:52:03;4.7;;;4.3;;
23252;SDS011;11795;47.054;15.408;2023-05-10T01:54:01;4.8;;;4.2;;
23252;SDS011;11795;47.054;15.408;2023-05-10T01:56:00;4.8;;;4.2;;
23252;SDS011;11795;47.054;15.408;2023-05-10T01:58:02;5.7;;;4.9;;
23252;SDS011;11795;47.054;15.408;2023-05-10T02:00:01;5.7;;;4.9;;
23252;SDS011;11795;47.054;15.408;2023-05-10T02:02:00;5.7;;;4.9;;
23252;SDS011;11795;47.054;15.408;2023-05-10T02:04:00;6.0;;;4.6;;
23252;SDS011;11795;47.054;15.408;2023-05-10T02:06:00;6.0;;;4.6;;
23252;SDS011;11795;47.054;15.408;2023-05-10T02:08:01;5.2;;;4.3;;
23252;SDS011;11795;47.054;15.408;2023-05-10T02:10:00;5.2;;;4.3;;
23252;SDS011;11795;47.054;15.408;2023-05-10T02:12:01;5.2;;;4.3;;
23252;SDS011;11795;47.054;15.408;2023-05-10T02:14:00;5.1;;;4.6;;
23252;SDS011;11795;47.054;15.408;2023-05-10T02:16:00;5.1;;;4.6;;
23252;SDS011;11795;47.054;15.408;2023-05-10T02:18:00;5.9;;;4.1;;
23252;SDS011;11795;47.054;15.408;2023-05-10T02:20:01;5.9;;;4.1;;
23252;SDS011;11795;47.054;15.408;2023-05-10T02:22:00;5.9;;;4.1;;
23252;SDS011;11795;47.054;15.408;2023-05-10T02:24:00;6.5;;;4.6;;
23252;SDS011;11795;47.054;15.408;2023-05-10T02:26:00;6.5;;;4.6;;
23252;SDS011;11795;47.054;15.408;2023-05-10T02:28:01;5.3;;;4.7;;
23252;SDS011;11795;47.054;15.408;2023-05-10T02:30:00;5.3;;;4.7;;
23252;SDS011;11795;47.054;15.408;2023-05-10T02:32:00;5.3;;;4.7;;
23252;SDS011;11795;47.054;15.408;2023-05-10T02:34:00;8.2;;;4.9;;
23252;SDS011;11795;47.054;15.408;2023-05-10T02:36:00;8.2;;;4.9;;
23252;SDS011;11795;47.054;15.408;2023-05-10T02:38:00;5.6;;;4.6;;
23252;SDS011;11795;47.054;15.408;2023-05-10T02:40:00;5.6;;;4.6;;
23252;SDS011;11795;47.054;15.408;2023-05-10T02:42:00;5.6;;;4.6;;
23252;SDS011;11795;47.054;15.408;2023-05-10T02:44:00;5.1;;;4.6;;
23252;SDS011;11795;47.054;15.408;2023-05-10T02:46:00;5.1;;;4.6;;
23252;SDS011;11795;47.054;15.408;2023-05-10T02:48:00;6.2;;;4.8;;
23252;SDS011;11795;47.054;15.408;2023-05-10T02:50:00;6.2;;;4.8;;
23252;SDS011;11795;47.054;15.408;2023-05-10T02:52:01;6.2;;;4.8;;
23252;SDS011;11795;47.054;15.408;2023-05-10T02:54:01;5.5;;;5.0;;
23252;SDS011;11795;47.054;15.408;2023-05-10T02:56:01;5.5;;;5.0;;
23252;SDS011;11795;47.054;15.408;2023-05-10T02:58:01;5.0;;;4.5;;
23252;SDS011;11795;47.054;15.408;2023-05-10T03:00:01;5.0;;;4.5;;
23252;SDS011;11795;47.054;15.408;2023-05-10T03:02:00;5.0;;;4.5;;
23252;SDS011;11795;47.054;15.408;2023-05-10T03:04:00;6.0;;;4.5;;
23252;SDS011;11795;47.054;15.408;2023-05-10T03:06:00;6.0;;;4.5;;
23252;SDS011;11795;47.054;15.408;2023-05-10T03:08:04;5.4;;;4.5;;
23252;SDS011;11795;47.054;15.408;2023-05-10T03:10:00;5.4;;;4.5;;
23252;SDS011;11795;47.054;15.408;2023-05-10T03:12:01;5.4;;;4.5;;
23252;SDS011;11795;47.054;15.408;2023-05-10T03:14:04;5.3;;;4.6;;
23252;SDS011;11795;47.054;15.408;2023-05-10T03:16:03;5.3;;;4.6;;
23252;SDS011;11795;47.054;15.408;2023-05-10T03:18:03;4.8;;;4.4;;
23252;SDS011;11795;47.054;15.408;2023-05-10T03:20:03;4.8;;;4.4;;
23252;SDS011;11795;47.054;15.408;2023-05-10T03:22:03;4.8;;;4.4;;
23252;SDS011;11795;47.054;15.408;2023-05-10T03:24:02;4.7;;;4.3;;
23252;SDS011;11795;47.054;15.408;2023-05-10T03:26:00;4.7;;;4.3;;
23252;SDS011;11795;47.054;15.408;2023-05-10T03:28:00;5.2;;;4.7;;
23252;SDS011;11795;47.054;15.408;2023-05-10T03:30:01;5.2;;;4.7;;
23252;SDS011;11795;47.054;15.408;2023-05-10T03:32:00;5.2;;;4.7;;
23252;SDS011;11795;47.054;15.408;2023-05-10T03:34:01;7.8;;;5.9;;
23252;SDS011;11795;47.054;15.408;2023-05-10T03:36:00;7.8;;;5.9;;
23252;SDS011;11795;47.054;15.408;2023-05-10T03:38:00;6.4;;;5.1;;
23252;SDS011;11795;47.054;15.408;2023-05-10T03:40:00;6.4;;;5.1;;
23252;SDS011;11795;47.054;15.408;2023-05-10T03:42:00;6.4;;;5.1;;
23252;SDS011;11795;47.054;15.408;2023-05-10T03:44:00;6.9;;;5.0;;
23252;SDS011;11795;47.054;15.408;2023-05-10T03:46:01;6.9;;;5.0;;
23252;SDS011;11795;47.054;15.408;2023-05-10T03:48:00;5.6;;;4.8;;
23252;SDS011;11795;47.054;15.408;2023-05-10T03:50:00;5.6;;;4.8;;
23252;SDS011;11795;47.054;15.408;2023-05-10T03:52:00;5.6;;;4.8;;
23252;SDS011;11795;47.054;15.408;2023-05-10T03:54:00;4.8;;;4.4;;
23252;SDS011;11795;47.054;15.408;2023-05-10T03:56:00;4.8;;;4.4;;
23252;SDS011;11795;47.054;15.408;2023-05-10T03:58:00;6.1;;;5.3;;
23252;SDS011;11795;47.054;15.408;2023-05-10T04:00:00;6.1;;;5.3;;
23252;SDS011;11795;47.054;15.408;2023-05-10T04:02:00;6.1;;;5.3;;
23252;SDS011;11795;47.054;15.408;2023-05-10T04:04:00;5.8;;;4.9;;
23252;SDS011;11795;47.054;15.408;2023-05-10T04:06:00;5.8;;;4.9;;
23252;SDS011;11795;47.054;15.408;2023-05-10T04:08:00;7.2;;;5.4;;
23252;SDS011;11795;47.054;15.408;2023-05-10T04:10:01;7.2;;;5.4;;
23252;SDS011;11795;47.054;15.408;2023-05-10T04:12:02;7.2;;;5.4;;
23252;SDS011;11795;47.054;15.408;2023-05-10T04:14:00;5.2;;;4.6;;
23252;SDS011;11795;47.054;15.408;2023-05-10T04:16:00;5.2;;;4.6;;
23252;SDS011;11795;47.054;15.408;2023-05-10T04:18:00;6.9;;;5.2;;
23252;SDS011;11795;47.054;15.408;2023-05-10T04:20:00;6.9;;;5.2;;
23252;SDS011;11795;47.054;15.408;2023-05-10T04:22:01;6.9;;;5.2;;
23252;SDS011;11795;47.054;15.408;2023-05-10T04:24:00;7.0;;;5.1;;
23252;SDS011;11795;47.054;15.408;2023-05-10T04:26:00;7.0;;;5.1;;
23252;SDS011;11795;47.054;15.408;2023-05-10T04:28:00;7.0;;;5.4;;
23252;SDS011;11795;47.054;15.408;2023-05-10T04:30:00;7.0;;;5.4;;
23252;SDS011;11795;47.054;15.408;2023-05-10T04:32:00;7.0;;;5.4;;
23252;SDS011;11795;47.054;15.408;2023-05-10T04:34:00;6.4;;;4.8;;
23252;SDS011;11795;47.054;15.408;2023-05-10T04:36:00;6.4;;;4.8;;
23252;SDS011;11795;47.054;15.408;2023-05-10T04:38:00;7.2;;;5.2;;
23252;SDS011;11795;47.054;15.408;2023-05-10T04:40:00;7.2;;;5.2;;
23252;SDS011;11795;47.054;15.408;2023-05-10T04:42:00;7.2;;;5.2;;
23252;SDS011;11795;47.054;15.408;2023-05-10T04:44:00;6.4;;;5.3;;
23252;SDS011;11795;47.054;15.408;2023-05-10T04:46:00;6.4;;;5.3;;
23252;SDS011;11795;47.054;15.408;2023-05-10T04:48:00;6.4;;;5.3;;
23252;SDS011;11795;47.054;15.408;2023-05-10T04:50:00;5.6;;;4.3;;
23252;SDS011;11795;47.054;15.408;2023-05-10T04:52:00;5.6;;;4.3;;
23252;SDS011;11795;47.054;15.408;2023-05-10T04:54:00;5.8;;;5.1;;
23252;SDS011;11795;47.054;15.408;2023-05-10T04:56:00;5.8;;;5.1;;
23252;SDS011;11795;47.054;15.408;2023-05-10T04:58:00;5.8;;;5.1;;
23252;SDS011;11795;47.054;15.408;2023-05-10T05:00:00;6.2;;;5.6;;
23252;SDS011;11795;47.054;15.408;2023-05-10T05:02:01;6.2;;;5.6;;
23252;SDS011;11795;47.054;15.408;2023-05-10T05:04:00;6.6;;;5.4;;
23252;SDS011;11795;47.054;15.408;2023-05-10T05:06:00;6.6;;;5.4;;
23252;SDS011;11795;47.054;15.408;2023-05-10T05:08:00;6.6;;;5.4;;
23252;SDS011;11795;47.054;15.408;2023-05-10T05:10:00;5.3;;;4.8;;
23252;SDS011;11795;47.054;15.408;2023-05-10T05:12:00;5.3;;;4.8;;
23252;SDS011;11795;47.054;15.408;2023-05-10T05:14:00;5.9;;;4.7;;
23252;SDS011;11795;47.054;15.408;2023-05-10T05:16:00;5.9;;;4.7;;
23252;SDS011;11795;47.054;15.408;2023-05-10T05:18:00;5.9;;;4.7;;
23252;SDS011;11795;47.054;15.408;2023-05-10T05:20:00;7.1;;;5.6;;
23252;SDS011;11795;47.054;15.408;2023-05-10T05:22:00;7.1;;;5.6;;
23252;SDS011;11795;47.054;15.408;2023-05-10T05:24:00;7.9;;;5.8;;
23252;SDS011;11795;47.054;15.408;2023-05-10T05:26:00;7.9;;;5.8;;
23252;SDS011;11795;47.054;15.408;2023-05-10T05:28:00;7.9;;;5.8;;
23252;SDS011;11795;47.054;15.408;2023-05-10T05:30:00;5.7;;;5.1;;
23252;SDS011;11795;47.054;15.408;2023-05-10T05:32:00;5.7;;;5.1;;
23252;SDS011;11795;47.054;15.408;2023-05-10T05:34:00;5.8;;;4.9;;
23252;SDS011;11795;47.054;15.408;2023-05-10T05:36:00;5.8;;;4.9;;
23252;SDS011;11795;47.054;15.408;2023-05-10T05:38:01;5.8;;;4.9;;
23252;SDS011;11795;47.054;15.408;2023-05-10T05:40:01;5.6;;;5.0;;
23252;SDS011;11795;47.054;15.408;2023-05-10T05:42:00;5.6;;;5.0;;
23252;SDS011;11795;47.054;15.408;2023-05-10T05:44:00;6.4;;;4.9;;
23252;SDS011;11795;47.054;15.408;2023-05-10T05:46:00;6.4;;;4.9;;
23252;SDS011;11795;47.054;15.408;2023-05-10T05:48:00;6.4;;;4.9;;
23252;SDS011;11795;47.054;15.408;2023-05-10T05:50:00;6.7;;;4.9;;
23252;SDS011;11795;47.054;15.408;2023-05-10T05:52:00;6.7;;;4.9;;
23252;SDS011;11795;47.054;15.408;2023-05-10T05:54:00;5.1;;;4.5;;
23252;SDS011;11795;47.054;15.408;2023-05-10T05:56:00;5.1;;;4.5;;
23252;SDS011;11795;47.054;15.408;2023-05-10T05:58:00;5.1;;;4.5;;
23252;SDS011;11795;47.054;15.408;2023-05-10T06:00:00;8.5;;;5.4;;
23252;SDS011;11795;47.054;15.408;2023-05-10T06:02:00;8.5;;;5.4;;
23252;SDS011;11795;47.054;15.408;2023-05-10T06:04:00;7.5;;;4.9;;
23252;SDS011;11795;47.054;15.408;2023-05-10T06:06:00;7.5;;;4.9;;
23252;SDS011;11795;47.054;15.408;2023-05-10T06:08:01;7.5;;;4.9;;
23252;SDS011;11795;47.054;15.408;2023-05-10T06:10:00;7.2;;;5.3;;
23252;SDS011;11795;47.054;15.408;2023-05-10T06:12:00;7.2;;;5.3;;
23252;SDS011;11795;47.054;15.408;2023-05-10T06:14:00;10.6;;;5.4;;
23252;SDS011;11795;47.054;15.408;2023-05-10T06:16:00;10.6;;;5.4;;
23252;SDS011;11795;47.054;15.408;2023-05-10T06:18:00;10.6;;;5.4;;
23252;SDS011;11795;47.054;15.408;2023-05-10T06:20:00;7.3;;;4.7;;
23252;SDS011;11795;47.054;15.408;2023-05-10T06:22:01;7.3;;;4.7;;
23252;SDS011;11795;47.054;15.408;2023-05-10T06:24:00;6.3;;;4.3;;
23252;SDS011;11795;47.054;15.408;2023-05-10T06:26:00;6.3;;;4.3;;
23252;SDS011;11795;47.054;15.408;2023-05-10T06:28:00;6.3;;;4.3;;
23252;SDS011;11795;47.054;15.408;2023-05-10T06:30:00;6.2;;;4.6;;
23252;SDS011;11795;47.054;15.408;2023-05-10T06:32:00;6.2;;;4.6;;
23252;SDS011;11795;47.054;15.408;2023-05-10T06:34:00;5.4;;;4.0;;
23252;SDS011;11795;47.054;15.408;2023-05-10T06:36:00;5.4;;;4.0;;
23252;SDS011;11795;47.054;15.408;2023-05-10T06:38:00;5.4;;;4.0;;
23252;SDS011;11795;47.054;15.408;2023-05-10T06:40:00;5.9;;;5.0;;
23252;SDS011;11795;47.054;15.408;2023-05-10T06:42:04;5.9;;;5.0;;
23252;SDS011;11795;47.054;15.408;2023-05-10T06:44:00;8.1;;;5.3;;
23252;SDS011;11795;47.054;15.408;2023-05-10T06:46:00;8.1;;;5.3;;
23252;SDS011;11795;47.054;15.408;2023-05-10T06:48:01;8.1;;;5.3;;
23252;SDS011;11795;47.054;15.408;2023-05-10T06:50:00;7.8;;;5.5;;
23252;SDS011;11795;47.054;15.408;2023-05-10T06:52:00;7.8;;;5.5;;
23252;SDS011;11795;47.054;15.408;2023-05-10T06:54:01;5.6;;;4.7;;
23252;SDS011;11795;47.054;15.408;2023-05-10T06:56:00;5.6;;;4.7;;
23252;SDS011;11795;47.054;15.408;2023-05-10T06:58:00;5.6;;;4.7;;
23252;SDS011;11795;47.054;15.408;2023-05-10T07:00:00;5.9;;;5.3;;
23252;SDS011;11795;47.054;15.408;2023-05-10T07:02:00;5.9;;;5.3;;
23252;SDS011;11795;47.054;15.408;2023-05-10T07:04:00;5.4;;;4.4;;
23252;SDS011;11795;47.054;15.408;2023-05-10T07:06:03;5.4;;;4.4;;
23252;SDS011;11795;47.054;15.408;2023-05-10T07:08:00;5.4;;;4.4;;
23252;SDS011;11795;47.054;15.408;2023-05-10T07:10:00;7.9;;;5.9;;
23252;SDS011;11795;47.054;15.408;2023-05-10T07:12:01;7.9;;;5.9;;
23252;SDS011;11795;47.054;15.408;2023-05-10T07:14:00;7.4;;;5.5;;
23252;SDS011;11795;47.054;15.408;2023-05-10T07:16:00;7.4;;;5.5;;
23252;SDS011;11795;47.054;15.408;2023-05-10T07:18:00;7.4;;;5.5;;
23252;SDS011;11795;47.054;15.408;2023-05-10T07:20:00;6.7;;;5.4;;
23252;SDS011;11795;47.054;15.408;2023-05-10T07:22:01;6.7;;;5.4;;
23252;SDS011;11795;47.054;15.408;2023-05-10T07:24:01;6.3;;;4.8;;
23252;SDS011;11795;47.054;15.408;2023-05-10T07:26:00;6.3;;;4.8;;
23252;SDS011;11795;47.054;15.408;2023-05-10T07:28:00;6.3;;;4.8;;
23252;SDS011;11795;47.054;15.408;2023-05-10T07:30:01;5.3;;;4.8;;
23252;SDS011;11795;47.054;15.408;2023-05-10T07:32:01;5.3;;;4.8;;
23252;SDS011;11795;47.054;15.408;2023-05-10T07:34:00;8.1;;;6.2;;
23252;SDS011;11795;47.054;15.408;2023-05-10T07:36:00;8.1;;;6.2;;
23252;SDS011;11795;47.054;15.408;2023-05-10T07:38:00;8.1;;;6.2;;
23252;SDS011;11795;47.054;15.408;2023-05-10T07:40:00;8.1;;;5.9;;
23252;SDS011;11795;47.054;15.408;2023-05-10T07:42:00;8.1;;;5.9;;
23252;SDS011;11795;47.054;15.408;2023-05-10T07:44:01;5.6;;;5.0;;
23252;SDS011;11795;47.054;15.408;2023-05-10T07:46:01;5.6;;;5.0;;
23252;SDS011;11795;47.054;15.408;2023-05-10T07:48:00;5.6;;;5.0;;
23252;SDS011;11795;47.054;15.408;2023-05-10T07:50:00;6.6;;;5.1;;
23252;SDS011;11795;47.054;15.408;2023-05-10T07:52:02;6.6;;;5.1;;
23252;SDS011;11795;47.054;15.408;2023-05-10T07:54:00;4.9;;;4.3;;
23252;SDS011;11795;47.054;15.408;2023-05-10T07:56:19;4.9;;;4.3;;
23252;SDS011;11795;47.054;15.408;2023-05-10T07:58:01;4.9;;;4.3;;
23252;SDS011;11795;47.054;15.408;2023-05-10T08:00:00;5.9;;;5.0;;
23252;SDS011;11795;47.054;15.408;2023-05-10T08:02:00;5.9;;;5.0;;
23252;SDS011;11795;47.054;15.408;2023-05-10T08:04:00;7.1;;;6.2;;
23252;SDS011;11795;47.054;15.408;2023-05-10T08:06:00;7.1;;;6.2;;
23252;SDS011;11795;47.054;15.408;2023-05-10T08:08:00;7.1;;;6.2;;
23252;SDS011;11795;47.054;15.408;2023-05-10T08:10:00;6.5;;;5.5;;
23252;SDS011;11795;47.054;15.408;2023-05-10T08:12:00;6.5;;;5.5;;
23252;SDS011;11795;47.054;15.408;2023-05-10T08:14:00;8.2;;;5.5;;
23252;SDS011;11795;47.054;15.408;2023-05-10T08:16:00;8.2;;;5.5;;
23252;SDS011;11795;47.054;15.408;2023-05-10T08:18:00;8.2;;;5.5;;
23252;SDS011;11795;47.054;15.408;2023-05-10T08:20:00;9.1;;;6.5;;
23252;SDS011;11795;47.054;15.408;2023-05-10T08:22:00;9.1;;;6.5;;
23252;SDS011;11795;47.054;15.408;2023-05-10T08:24:00;7.5;;;5.4;;
23252;SDS011;11795;47.054;15.408;2023-05-10T08:26:00;7.5;;;5.4;;
23252;SDS011;11795;47.054;15.408;2023-05-10T08:28:00;7.5;;;5.4;;
23252;SDS011;11795;47.054;15.408;2023-05-10T08:30:00;6.3;;;5.1;;
23252;SDS011;11795;47.054;15.408;2023-05-10T08:32:00;6.3;;;5.1;;
23252;SDS011;11795;47.054;15.408;2023-05-10T08:34:00;8.0;;;5.2;;
23252;SDS011;11795;47.054;15.408;2023-05-10T08:36:00;8.0;;;5.2;;
23252;SDS011;11795;47.054;15.408;2023-05-10T08:38:00;8.0;;;5.2;;
23252;SDS011;11795;47.054;15.408;2023-05-10T08:40:00;6.3;;;5.2;;
23252;SDS011;11795;47.054;15.408;2023-05-10T08:42:01;6.3;;;5.2;;
23252;SDS011;11795;47.054;15.408;2023-05-10T08:44:02;7.2;;;4.6;;
23252;SDS011;11795;47.054;15.408;2023-05-10T08:46:00;7.2;;;4.6;;
23252;SDS011;11795;47.054;15.408;2023-05-10T08:48:01;7.2;;;4.6;;
23252;SDS011;11795;47.054;15.408;2023-05-10T08:50:00;7.3;;;5.2;;
23252;SDS011;11795;47.054;15.408;2023-05-10T08:52:01;7.3;;;5.2;;
23252;SDS011;11795;47.054;15.408;2023-05-10T08:56:01;7.2;;;4.7;;
23252;SDS011;11795;47.054;15.408;2023-05-10T08:58:00;7.2;;;4.7;;
23252;SDS011;11795;47.054;15.408;2023-05-10T09:00:00;5.4;;;4.6;;
23252;SDS011;11795;47.054;15.408;2023-05-10T09:02:00;5.4;;;4.6;;
23252;SDS011;11795;47.054;15.408;2023-05-10T09:04:00;5.8;;;4.7;;
23252;SDS011;11795;47.054;15.408;2023-05-10T09:06:00;5.8;;;4.7;;
23252;SDS011;11795;47.054;15.408;2023-05-10T09:08:00;5.8;;;4.7;;
23252;SDS011;11795;47.054;15.408;2023-05-10T09:10:00;6.6;;;5.0;;
23252;SDS011;11795;47.054;15.408;2023-05-10T09:12:00;6.6;;;5.0;;
23252;SDS011;11795;47.054;15.408;2023-05-10T09:14:00;6.0;;;4.8;;
23252;SDS011;11795;47.054;15.408;2023-05-10T09:16:00;6.0;;;4.8;;
23252;SDS011;11795;47.054;15.408;2023-05-10T09:18:02;6.0;;;4.8;;
23252;SDS011;11795;47.054;15.408;2023-05-10T09:20:01;4.9;;;4.1;;
23252;SDS011;11795;47.054;15.408;2023-05-10T09:22:02;4.9;;;4.1;;
23252;SDS011;11795;47.054;15.408;2023-05-10T09:24:02;5.5;;;4.8;;
23252;SDS011;11795;47.054;15.408;2023-05-10T09:26:02;5.5;;;4.8;;
23252;SDS011;11795;47.054;15.408;2023-05-10T09:28:00;5.5;;;4.8;;
23252;SDS011;11795;47.054;15.408;2023-05-10T09:30:00;6.0;;;4.4;;
23252;SDS011;11795;47.054;15.408;2023-05-10T09:32:00;6.0;;;4.4;;
23252;SDS011;11795;47.054;15.408;2023-05-10T09:34:00;5.4;;;3.6;;
23252;SDS011;11795;47.054;15.408;2023-05-10T09:36:06;5.4;;;3.6;;
23252;SDS011;11795;47.054;15.408;2023-05-10T09:38:02;5.4;;;3.6;;
23252;SDS011;11795;47.054;15.408;2023-05-10T09:40:00;6.7;;;4.9;;
23252;SDS011;11795;47.054;15.408;2023-05-10T09:42:01;6.7;;;4.9;;
23252;SDS011;11795;47.054;15.408;2023-05-10T09:44:00;5.1;;;4.0;;
23252;SDS011;11795;47.054;15.408;2023-05-10T09:46:01;5.1;;;4.0;;
23252;SDS011;11795;47.054;15.408;2023-05-10T09:48:01;5.1;;;4.0;;
23252;SDS011;11795;47.054;15.408;2023-05-10T09:50:03;6.1;;;4.6;;
23252;SDS011;11795;47.054;15.408;2023-05-10T09:52:02;6.1;;;4.6;;
23252;SDS011;11795;47.054;15.408;2023-05-10T09:56:00;4.7;;;3.7;;
23252;SDS011;11795;47.054;15.408;2023-05-10T09:58:01;4.7;;;3.7;;
23252;SDS011;11795;47.054;15.408;2023-05-10T10:00:00;5.9;;;4.5;;
23252;SDS011;11795;47.054;15.408;2023-05-10T10:02:00;5.9;;;4.5;;
23252;SDS011;11795;47.054;15.408;2023-05-10T10:04:02;5.9;;;4.5;;
23252;SDS011;11795;47.054;15.408;2023-05-10T10:06:01;5.9;;;4.5;;
23252;SDS011;11795;47.054;15.408;2023-05-10T10:08:01;5.9;;;4.5;;
23252;SDS011;11795;47.054;15.408;2023-05-10T10:10:00;5.2;;;4.7;;
23252;SDS011;11795;47.054;15.408;2023-05-10T10:12:01;5.2;;;4.7;;
23252;SDS011;11795;47.054;15.408;2023-05-10T10:14:00;6.9;;;4.5;;
23252;SDS011;11795;47.054;15.408;2023-05-10T10:16:00;6.9;;;4.5;;
23252;SDS011;11795;47.054;15.408;2023-05-10T10:18:00;6.9;;;4.5;;
23252;SDS011;11795;47.054;15.408;2023-05-10T10:20:02;5.7;;;4.3;;
23252;SDS011;11795;47.054;15.408;2023-05-10T10:22:00;5.7;;;4.3;;
23252;SDS011;11795;47.054;15.408;2023-05-10T10:24:00;6.1;;;3.9;;
23252;SDS011;11795;47.054;15.408;2023-05-10T10:26:01;6.1;;;3.9;;
23252;SDS011;11795;47.054;15.408;2023-05-10T10:28:06;6.1;;;3.9;;
23252;SDS011;11795;47.054;15.408;2023-05-10T10:30:03;6.4;;;4.4;;
23252;SDS011;11795;47.054;15.408;2023-05-10T10:32:02;6.4;;;4.4;;
23252;SDS011;11795;47.054;15.408;2023-05-10T10:34:01;6.1;;;4.3;;
23252;SDS011;11795;47.054;15.408;2023-05-10T10:36:01;6.1;;;4.3;;
23252;SDS011;11795;47.054;15.408;2023-05-10T10:38:00;6.1;;;4.3;;
23252;SDS011;11795;47.054;15.408;2023-05-10T10:40:00;4.7;;;4.2;;
23252;SDS011;11795;47.054;15.408;2023-05-10T10:42:03;4.7;;;4.2;;
23252;SDS011;11795;47.054;15.408;2023-05-10T10:50:03;5.3;;;4.5;;
23252;SDS011;11795;47.054;15.408;2023-05-10T10:54:08;5.3;;;4.5;;
23252;SDS011;11795;47.054;15.408;2023-05-10T10:56:05;4.4;;;4.0;;
23252;SDS011;11795;47.054;15.408;2023-05-10T10:58:00;4.4;;;4.0;;
23252;SDS011;11795;47.054;15.408;2023-05-10T11:02:00;4.9;;;4.0;;
23252;SDS011;11795;47.054;15.408;2023-05-10T11:06:01;5.8;;;4.9;;
23252;SDS011;11795;47.054;15.408;2023-05-10T11:08:06;5.8;;;4.9;;
23252;SDS011;11795;47.054;15.408;2023-05-10T11:10:03;5.9;;;5.1;;
23252;SDS011;11795;47.054;15.408;2023-05-10T11:12:07;5.9;;;5.1;;
23252;SDS011;11795;47.054;15.408;2023-05-10T11:14:02;5.9;;;5.1;;
23252;SDS011;11795;47.054;15.408;2023-05-10T11:18:15;5.1;;;4.3;;
23252;SDS011;11795;47.054;15.408;2023-05-10T11:20:02;7.6;;;5.0;;
23252;SDS011;11795;47.054;15.408;2023-05-10T11:24:01;7.6;;;5.0;;
23252;SDS011;11795;47.054;15.408;2023-05-10T11:26:01;4.6;;;3.8;;
23252;SDS011;11795;47.054;15.408;2023-05-10T11:28:00;4.6;;;3.8;;
23252;SDS011;11795;47.054;15.408;2023-05-10T11:30:00;5.6;;;5.0;;
23252;SDS011;11795;47.054;15.408;2023-05-10T11:32:00;5.6;;;5.0;;
23252;SDS011;11795;47.054;15.408;2023-05-10T11:34:01;5.6;;;5.0;;
23252;SDS011;11795;47.054;15.408;2023-05-10T11:36:00;5.1;;;4.6;;
23252;SDS011;11795;47.054;15.408;2023-05-10T11:38:00;5.1;;;4.6;;
23252;SDS011;11795;47.054;15.408;2023-05-10T11:40:00;5.3;;;4.2;;
23252;SDS011;11795;47.054;15.408;2023-05-10T11:42:00;5.3;;;4.2;;
23252;SDS011;11795;47.054;15.408;2023-05-10T11:44:00;5.3;;;4.2;;
23252;SDS011;11795;47.054;15.408;2023-05-10T11:46:00;5.1;;;4.3;;
23252;SDS011;11795;47.054;15.408;2023-05-10T11:48:00;5.1;;;4.3;;
23252;SDS011;11795;47.054;15.408;2023-05-10T11:50:01;6.4;;;4.5;;
23252;SDS011;11795;47.054;15.408;2023-05-10T11:52:04;6.4;;;4.5;;
23252;SDS011;11795;47.054;15.408;2023-05-10T11:54:00;6.4;;;4.5;;
23252;SDS011;11795;47.054;15.408;2023-05-10T11:56:03;4.6;;;3.9;;
23252;SDS011;11795;47.054;15.408;2023-05-10T11:58:01;4.6;;;3.9;;
23252;SDS011;11795;47.054;15.408;2023-05-10T12:00:01;5.6;;;4.7;;
23252;SDS011;11795;47.054;15.408;2023-05-10T12:02:00;5.6;;;4.7;;
23252;SDS011;11795;47.054;15.408;2023-05-10T12:04:00;5.6;;;4.7;;
23252;SDS011;11795;47.054;15.408;2023-05-10T12:06:01;17.3;;;12.0;;
23252;SDS011;11795;47.054;15.408;2023-05-10T12:10:02;8.0;;;7.0;;
23252;SDS011;11795;47.054;15.408;2023-05-10T12:12:01;8.0;;;7.0;;
23252;SDS011;11795;47.054;15.408;2023-05-10T12:14:03;8.0;;;7.0;;
23252;SDS011;11795;47.054;15.408;2023-05-10T12:16:00;7.9;;;4.9;;
23252;SDS011;11795;47.054;15.408;2023-05-10T12:18:01;7.9;;;4.9;;
23252;SDS011;11795;47.054;15.408;2023-05-10T12:22:04;5.0;;;4.1;;
23252;SDS011;11795;47.054;15.408;2023-05-10T12:24:01;5.0;;;4.1;;
23252;SDS011;11795;47.054;15.408;2023-05-10T12:26:01;4.6;;;4.0;;
23252;SDS011;11795;47.054;15.408;2023-05-10T12:28:02;4.6;;;4.0;;
23252;SDS011;11795;47.054;15.408;2023-05-10T12:30:00;5.2;;;3.7;;
23252;SDS011;11795;47.054;15.408;2023-05-10T12:32:00;5.2;;;3.7;;
23252;SDS011;11795;47.054;15.408;2023-05-10T12:34:00;5.2;;;3.7;;
23252;SDS011;11795;47.054;15.408;2023-05-10T12:36:00;4.4;;;3.4;;
23252;SDS011;11795;47.054;15.408;2023-05-10T12:38:00;4.4;;;3.4;;